Moose Jaw Air Vice Marshal C. M. McEwen Airport
CYMJ : now visible

Airfield :











YOU CAN JOIN US ON...

 
LOGIN :

Register | Disclaimer

   EN    FR    IT 

 









Legend :    VFR   Marginal VFR   IFR   Intensive IFR   Very Intensive IFR
Visi :
Ceiling :
>= 8 km
>= 3000ft
5 to 8 km
1000 to 3000 ft
1500m to 5 km
500 to 1000 ft
800 to 1500m
200 to 500 ft
< 800m
< 200 ft
Symbols :   Thunderstorms  Fog  Heavy snow  Heavy precipitations  Wind > 20 kt






- Airport Elevation : 1892 ft
- IATA code : YMJ


CYMJ - Moose Jaw Air Vice Marshal C. M. McEwen

CURRENT METAR :
  • 291300Z 20017G22KT 15SM FEW120 SCT140 BKN270 19/14 A2970 RMK ACC1AC3CI1 SLP057

EXPIRED METARs :
  • 291200Z 19010G18KT 15SM BKN120 BKN140 BKN270 17/14 A2972 RMK ACC5AC1CI1 SLP063
  • 291100Z 10011KT 15SM -SHRA BKN120 OVC270 17/14 A2974 RMK ACC7CI1 PRESFR SLP069

TAF TAF CYMJ
Valid from the 29 at 12:00 until the 30 at 00:00 UTC


291140Z 2912/2924 12010KT P6SM BKN120 OVC270
TEMPO 2912/2916 P6SM -SHRA
FM291600 15010KT P6SM BKN140 OVC270
BECMG 2916/2918 27012G22KT FEW140
FM291800 27012G22KT P6SM FEW140
BECMG 2918/2920 28018G28KT
FM292300 29018G28KT P6SM BKN080 RMK NXT FCST BY 291800Z
CZWG FIR / North America



MET'MAP, your aeronautical weather chart ! - Copyright ORBIFLY December 2007 - Disclaimer

ORBIFLY MET'MAP TEAM :

Programming & Development : Alexandra Zaïnal
Original concept : Baudouin d'Aumeries
Technical & hardware support : Manuel Goepfert
Assistance : Marc-Olivier Méhu




SOURCES & CREDITS :

   NOAA       Earth
Advisory